Latest Weather Observations for Roxby Downs

IDS60801

Issued at 10:01 pm CDT Thursday 23 February 2017 (issued every 30 minutes, with the page automatically refreshed every 10 minutes)

About weather observations | Map of weather stations | Latest weather observations for SA | Other Formats
Station Details ID: 016096 Name: OLYMPIC DAM AERODROME Lat: -30.48 Lon: 136.88 Height: 98.5 m
Data from the previous 72 hours. | See also: Recent months at Roxby Downs
Date/Time
CDT
Temp
°C
App
Temp
°C
Dew
Point
°C
Rel
Hum
%
Delta-T
°C
Wind Press
QNH
hPa
Press
MSL
hPa
Rain since
9am
mm
Dir  Spd
km/h
Gust
km/h
Spd
kts
Gust
kts
23/10:00pm 25.3 21.4 3.3 24 10.8 SSW 13 15 7 8 1019.6 1019.0 0.0
23/09:30pm 26.1 22.1 2.7 22 11.4 SSW 13 17 7 9 1019.3 1018.7 0.0
23/09:00pm 26.9 22.4 2.1 20 12.0 SW 15 20 8 11 1019.1 1018.5 0.0
23/08:30pm 27.7 22.7 1.2 18 12.7 SW 17 22 9 12 1018.8 1018.2 0.0
23/08:00pm 28.5 23.2 1.9 18 13.0 SSW 19 28 10 15 1018.5 1017.9 0.0
23/07:30pm 29.4 24.0 2.6 18 13.4 SSW 20 26 11 14 1018.2 1017.6 0.0
23/07:00pm 30.1 24.5 3.2 18 13.6 SSW 22 32 12 17 1018.0 1017.4 0.0
23/06:30pm 30.8 25.1 3.0 17 14.1 SSW 22 30 12 16 1017.7 1017.1 0.0
23/06:00pm 31.2 25.8 2.4 16 14.5 SSW 20 32 11 17 1017.7 1017.1 0.0
23/05:30pm 31.0 25.0 3.1 17 14.2 SSW 24 32 13 17 1017.5 1016.9 0.0
23/05:00pm 31.8 26.6 3.8 17 14.5 SSW 20 33 11 18 1017.5 1016.9 0.0
23/04:30pm 30.8 26.1 3.0 17 14.1 SSW 17 32 9 17 1017.8 1017.2 0.0
23/04:00pm 30.3 25.3 3.4 18 13.7 S 19 28 10 15 1018.0 1017.4 0.0
23/03:30pm 30.0 25.1 3.9 19 13.4 S 19 30 10 16 1018.3 1017.7 0.0
23/03:00pm 30.5 26.1 5.0 20 13.3 S 17 24 9 13 1018.7 1018.1 0.0
23/02:30pm 29.0 24.2 5.8 23 12.2 S 20 32 11 17 1019.0 1018.4 0.0
23/02:00pm 28.0 23.3 5.0 23 11.9 SSE 19 30 10 16 1019.3 1018.7 0.0
23/01:30pm 28.3 23.9 6.4 25 11.6 S 19 28 10 15 1019.6 1019.0 0.0
23/01:00pm 27.0 22.5 6.9 28 10.7 S 20 30 11 16 1019.7 1019.1 0.0
23/12:30pm 26.5 22.3 7.5 30 10.1 S 19 28 10 15 1020.1 1019.5 0.0
23/12:00pm 25.1 19.6 7.7 33 9.2 SSW 26 33 14 18 1020.2 1019.6 0.0
23/11:30am 24.4 19.8 8.0 35 8.7 SSE 22 32 12 17 1020.6 1020.0 0.0
23/11:00am 23.0 17.8 9.0 41 7.5 S 26 33 14 18 1020.6 1020.0 0.0
23/10:30am 22.3 17.3 9.5 44 6.9 SSE 26 35 14 19 1020.6 1020.0 0.0
23/10:00am 21.1 15.4 9.7 48 6.1 SSE 30 39 16 21 1020.6 1020.0 0.0
23/09:30am 20.1 14.0 9.9 52 5.5 S 32 43 17 23 1020.4 1019.8 0.0
23/09:00am 19.2 13.3 10.5 57 4.7 S 32 43 17 23 1020.0 1019.4 0.0
23/08:30am 18.5 13.8 10.8 61 4.2 S 26 33 14 18 1020.0 1019.4 0.0
23/08:00am 17.7 14.2 11.0 65 3.6 S 20 32 11 17 1019.7 1019.1 0.0
23/07:30am 17.2 13.6 10.6 65 3.5 S 20 26 11 14 1019.1 1018.5 0.0
23/07:00am 17.3 13.3 10.4 64 3.7 S 22 28 12 15 1018.6 1018.0 0.0
23/06:30am 17.4 13.7 10.1 62 3.9 S 20 30 11 16 1018.3 1017.7 0.0
23/06:00am 17.9 14.1 9.8 59 4.3 S 20 26 11 14 1017.9 1017.3 0.0
23/05:30am 18.3 14.5 9.9 58 4.5 S 20 28 11 15 1017.4 1016.8 0.0
23/05:00am 18.7 15.0 10.0 57 4.7 S 20 28 11 15 1017.2 1016.6 0.0
23/04:30am 19.1 15.3 9.9 55 4.9 S 20 32 11 17 1017.1 1016.5 0.0
23/04:00am 19.6 15.3 9.5 52 5.4 S 22 30 12 16 1016.9 1016.3 0.0
23/03:30am 20.1 14.7 9.4 50 5.7 S 28 37 15 20 1016.8 1016.2 0.0
23/03:00am 20.6 14.7 9.2 48 6.1 SSW 30 41 16 22 1016.7 1016.1 0.0
23/02:30am 20.8 15.7 9.1 47 6.2 S 26 35 14 19 1016.7 1016.1 0.0
23/02:00am 21.2 16.0 8.8 45 6.6 S 26 37 14 20 1016.7 1016.1 0.0
23/01:30am 21.6 15.4 7.8 41 7.2 SSW 30 41 16 22 1016.3 1015.7 0.0
23/01:00am 22.3 16.2 6.5 36 8.1 SSW 28 43 15 23 1016.4 1015.8 0.0
23/12:30am 23.3 16.5 5.2 31 9.1 SSW 30 39 16 21 1016.2 1015.6 0.0
23/12:00am 24.2 17.9 4.0 27 10.0 SSW 26 35 14 19 1016.0 1015.4 0.0
 
Date/Time
CDT
Temp
°C
App
Temp
°C
Dew
Point
°C
Rel
Hum
%
Delta-T
°C
Wind Press
QNH
hPa
Press
MSL
hPa
Rain since
9am
mm
Dir  Spd
km/h
Gust
km/h
Spd
kts
Gust
kts
22/11:30pm 25.1 18.8 3.7 25 10.6 SSW 26 35 14 19 1015.8 1015.2 0.0
22/11:00pm 26.1 19.7 3.4 23 11.3 SSW 26 37 14 20 1015.4 1014.8 0.0
22/10:30pm 27.0 19.8 2.8 21 11.9 SSW 30 41 16 22 1014.9 1014.3 0.0
22/10:00pm 27.6 21.6 3.3 21 12.1 SSW 24 32 13 17 1014.5 1013.9 0.0
22/09:30pm 28.0 22.2 2.2 19 12.7 SSW 22 32 12 17 1013.9 1013.3 0.0
22/09:00pm 28.6 22.0 2.0 18 13.1 SW 26 33 14 18 1013.3 1012.7 0.0
22/08:30pm 29.0 22.9 6.4 24 12.0 SSW 28 35 15 19 1012.8 1012.2 0.0
22/08:00pm 29.8 23.9 7.7 25 12.1 SW 28 37 15 20 1012.2 1011.6 0.0
22/07:30pm 31.0 25.1 7.5 23 12.9 SW 28 39 15 21 1011.8 1011.2 0.0
22/07:00pm 32.3 26.6 6.5 20 14.0 SW 26 35 14 19 1011.3 1010.7 0.0
22/06:30pm 33.4 27.3 6.6 19 14.7 SW 28 37 15 20 1011.0 1010.4 0.0
22/06:00pm 34.6 29.3 5.1 16 15.9 WSW 22 32 12 17 1010.7 1010.1 0.0
22/05:30pm 35.2 30.2 4.7 15 16.3 WSW 20 39 11 21 1010.3 1009.7 0.0
22/05:00pm 35.8 29.8 5.1 15 16.6 W 26 41 14 22 1010.2 1009.6 0.0
22/04:30pm 35.9 31.0 5.2 15 16.6 WSW 20 32 11 17 1010.1 1009.5 0.0
22/04:00pm 36.0 30.8 3.3 13 17.2 WSW 20 37 11 20 1010.0 1009.4 0.0
22/03:30pm 36.7 30.2 0.1 10 18.4 W 24 35 13 19 1010.1 1009.5 0.0
22/03:00pm 37.4 30.2 -2.4 8 19.3 WNW 26 41 14 22 1010.3 1009.7 0.0
22/02:30pm 36.0 30.3 -3.4 8 18.6 WNW 17 28 9 15 1010.7 1010.1 0.0
22/02:00pm 35.4 28.2 -2.3 9 18.1 NW 26 39 14 21 1011.0 1010.4 0.0
22/01:30pm 35.0 28.7 -1.1 10 17.6 NW 22 37 12 20 1011.2 1010.6 0.0
22/01:00pm 34.6 28.0 -0.1 11 17.1 WNW 24 37 13 20 1011.5 1010.9 0.0
22/12:30pm 33.5 27.9 0.2 12 16.4 WNW 19 33 10 18 1011.8 1011.2 0.0
22/12:00pm 32.9 26.9 0.9 13 15.9 W 22 32 12 17 1012.2 1011.6 0.0
22/11:30am 32.4 25.2 0.5 13 15.7 NW 28 37 15 20 1012.3 1011.7 0.0
22/11:00am 32.7 26.1 -0.4 12 16.1 NNW 24 35 13 19 1012.4 1011.8 0.0
22/10:30am 31.1 23.7 -0.5 13 15.1 N 28 39 15 21 1012.1 1011.5 0.0
22/10:00am 29.4 21.2 0.1 15 14.0 N 33 41 18 22 1011.8 1011.2 0.0
22/09:30am 28.1 21.7 0.8 17 13.1 N 24 35 13 19 1011.8 1011.2 0.0
22/09:00am 26.5 20.5 1.0 19 12.1 N 22 33 12 18 1011.8 1011.2 0.0
22/08:30am 24.5 18.5 0.8 21 11.1 NNE 22 30 12 16 1011.3 1010.7 0.0
22/08:00am 22.5 16.9 0.9 24 10.0 NNE 20 28 11 15 1010.8 1010.2 0.0
22/07:30am 21.4 16.4 1.1 26 9.3 NNE 17 22 9 12 1010.6 1010.0 0.0
22/07:00am 21.2 16.1 1.0 26 9.2 NNE 17 22 9 12 1010.2 1009.6 0.0
22/06:30am 21.5 16.5 1.2 26 9.4 NNE 17 22 9 12 1010.1 1009.5 0.0
22/06:00am 21.6 17.0 1.3 26 9.4 NNE 15 20 8 11 1009.9 1009.3 0.0
22/05:30am 22.2 17.2 1.3 25 9.7 NNE 17 22 9 12 1009.7 1009.1 0.0
22/05:00am 22.6 17.6 1.6 25 9.8 NNE 17 20 9 11 1009.9 1009.3 0.0
22/04:30am 23.5 18.1 1.2 23 10.4 NNE 19 24 10 13 1010.2 1009.6 0.0
22/04:00am 23.7 18.4 2.0 24 10.3 NNE 19 24 10 13 1010.2 1009.6 0.0
22/03:30am 22.9 18.3 1.3 24 10.1 NNE 15 20 8 11 1010.3 1009.7 0.0
22/03:00am 22.3 17.8 1.9 26 9.6 NNE 15 20 8 11 1010.5 1009.9 0.0
22/02:30am 21.9 17.7 1.6 26 9.5 NE 13 17 7 9 1010.8 1010.2 0.0
22/02:00am 23.2 18.6 1.5 24 10.2 NNE 15 19 8 10 1011.1 1010.5 0.0
22/01:30am 23.5 19.3 1.8 24 10.3 NNE 13 17 7 9 1011.4 1010.8 0.0
22/01:00am 23.7 19.5 1.4 23 10.5 NNE 13 17 7 9 1011.7 1011.1 0.0
22/12:30am 24.1 19.8 1.1 22 10.8 NNE 13 17 7 9 1011.8 1011.2 0.0
22/12:00am 24.7 20.8 0.9 21 11.2 NNE 11 15 6 8 1012.2 1011.6 0.0
 
Date/Time
CDT
Temp
°C
App
Temp
°C
Dew
Point
°C
Rel
Hum
%
Delta-T
°C
Wind Press
QNH
hPa
Press
MSL
hPa
Rain since
9am
mm
Dir  Spd
km/h
Gust
km/h
Spd
kts
Gust
kts
21/11:30pm 25.1 20.8 1.3 21 11.3 N 13 15 7 8 1012.4 1011.8 0.0
21/11:00pm 26.3 21.7 1.6 20 11.9 N 15 19 8 10 1012.6 1012.0 0.0
21/10:30pm 27.2 22.5 0.8 18 12.6 N 15 20 8 11 1012.4 1011.8 0.0
21/10:00pm 27.7 22.9 0.5 17 12.9 N 15 19 8 10 1012.6 1012.0 0.0
21/09:30pm 28.0 23.7 0.7 17 13.1 NNE 13 17 7 9 1012.3 1011.7 0.0
21/09:00pm 28.6 24.2 0.3 16 13.5 NNE 13 15 7 8 1012.3 1011.7 0.0
21/08:30pm 29.8 25.4 0.4 15 14.2 NNE 13 17 7 9 1012.0 1011.4 0.0
21/08:00pm 30.6 25.5 1.0 15 14.5 NNE 17 26 9 14 1011.8 1011.2 0.0
21/07:30pm 31.6 26.5 0.9 14 15.1 NNE 17 28 9 15 1011.5 1010.9 0.0
21/07:00pm 32.0 26.4 1.2 14 15.3 NNE 20 30 11 16 1011.3 1010.7 0.0
21/06:30pm 32.9 28.4 1.9 14 15.7 N 15 22 8 12 1011.2 1010.6 0.0
21/06:00pm 32.4 27.0 1.5 14 15.5 N 19 24 10 13 1011.4 1010.8 0.0
21/05:30pm 32.9 28.2 2.9 15 15.4 N 17 35 9 19 1011.5 1010.9 0.0
21/05:00pm 32.7 27.9 2.7 15 15.3 NNW 17 30 9 16 1011.7 1011.1 0.0
21/04:30pm 32.6 27.4 2.6 15 15.3 NNW 19 28 10 15 1012.0 1011.4 0.0
21/04:00pm 32.1 27.6 2.2 15 15.1 N 15 28 8 15 1012.5 1011.9 0.0
21/03:30pm 32.7 28.7 2.7 15 15.3 N 13 24 7 13 1012.9 1012.3 0.0
21/03:00pm 31.9 26.6 2.1 15 15.0 NNE 19 32 10 17 1013.6 1013.0 0.0
21/02:30pm 30.9 26.0 2.2 16 14.4 NNE 17 24 9 13 1014.2 1013.6 0.0
21/02:00pm 31.5 27.2 3.5 17 14.4 NNE 15 26 8 14 1014.7 1014.1 0.0
21/01:30pm 30.0 25.9 2.3 17 13.8 NNE 13 30 7 16 1015.4 1014.8 0.0
21/01:00pm 29.9 25.6 3.0 18 13.6 NNE 15 22 8 12 1015.8 1015.2 0.0
21/12:30pm 30.0 25.6 4.6 20 13.2 NE 17 24 9 13 1016.5 1015.9 0.0
21/12:00pm 28.5 23.6 4.1 21 12.4 NNE 19 28 10 15 1017.0 1016.4 0.0
21/11:30am 27.8 22.5 4.8 23 11.8 NNE 22 32 12 17 1017.5 1016.9 0.0
21/11:00am 26.7 21.4 5.1 25 11.1 NNE 22 33 12 18 1017.8 1017.2 0.0
21/10:30am 26.2 20.9 5.2 26 10.7 NE 22 30 12 16 1017.9 1017.3 0.0
21/10:00am 25.3 20.0 5.0 27 10.3 NE 22 32 12 17 1017.8 1017.2 0.0
21/09:30am 24.6 19.8 5.4 29 9.8 NE 20 28 11 15 1017.7 1017.1 0.0
21/09:00am 22.9 18.8 6.2 34 8.5 NE 17 22 9 12 1017.5 1016.9 0.0
21/08:30am 20.9 17.6 8.2 44 6.6 NE 15 20 8 11 1017.4 1016.8 0.0
21/08:00am 19.1 17.2 9.0 52 5.3 ENE 9 15 5 8 1017.0 1016.4 0.0
21/07:30am 16.8 14.9 9.2 61 4.0 ENE 9 11 5 6 1016.5 1015.9 0.0
21/07:00am 15.4 13.7 10.0 70 2.8 E 9 13 5 7 1016.1 1015.5 0.0
21/06:30am 13.8 11.9 6.7 62 3.4 ESE 6 7 3 4 1015.8 1015.2 0.0
21/06:00am 13.9 11.9 7.2 64 3.3 ESE 7 9 4 5 1015.5 1014.9 0.0
21/05:30am 13.9 11.5 5.3 56 4.0 ESE 7 9 4 5 1015.4 1014.8 0.0
21/05:00am 14.4 12.1 4.7 52 4.5 SE 6 6 3 3 1015.2 1014.6 0.0
21/04:30am 15.1 13.0 5.9 54 4.4 SSE 6 7 3 4 1015.4 1014.8 0.0
21/04:00am 16.8 15.1 6.0 49 5.3 ESE 4 7 2 4 1015.5 1014.9 0.0
21/03:30am 18.6 16.7 7.4 48 5.7 E 7 11 4 6 1015.5 1014.9 0.0
21/03:00am 19.5 16.5 7.6 46 6.1 ESE 13 17 7 9 1015.6 1015.0 0.0
21/02:30am 20.0 16.5 7.1 43 6.6 ESE 15 20 8 11 1015.8 1015.2 0.0
21/02:00am 19.8 16.7 7.2 44 6.4 ESE 13 17 7 9 1015.7 1015.1 0.0
21/01:30am 18.0 15.5 4.6 41 6.4 E 7 9 4 5 1016.1 1015.5 0.0
21/01:00am 20.2 17.3 6.5 41 6.9 E 11 11 6 6 1016.2 1015.6 0.0
21/12:30am 20.8 17.9 6.4 39 7.3 E 11 11 6 6 1016.3 1015.7 0.0
21/12:00am 20.1 17.4 5.7 39 7.1 E 9 11 5 6 1016.4 1015.8 0.0
 
Date/Time
CDT
Temp
°C
App
Temp
°C
Dew
Point
°C
Rel
Hum
%
Delta-T
°C
Wind Press
QNH
hPa
Press
MSL
hPa
Rain since
9am
mm
Dir  Spd
km/h
Gust
km/h
Spd
kts
Gust
kts
20/11:30pm 21.3 18.7 6.0 37 7.7 E 9 11 5 6 1016.5 1015.9 0.0
20/11:00pm 21.9 18.9 6.2 36 8.0 E 11 11 6 6 1016.5 1015.9 0.0
20/10:30pm 22.5 19.5 5.9 34 8.4 E 11 13 6 7 1016.4 1015.8 0.0

Other Formats:

Comma delimited format used in spreadsheet applications
http://www.bom.gov.au/fwo/IDS60801/IDS60801.95658.axf

JavaScript Object Notation format (JSON) in row-major order
http://www.bom.gov.au/fwo/IDS60801/IDS60801.95658.json